sensor_id;sensor_type;location;lat;lon;timestamp;pressure;altitude;pressure_sealevel;temperature;humidity
11444;BME280;5778;47.856;12.154;2023-07-09T00:01:13;96741.00;;;20.82;100.00
11444;BME280;5778;47.856;12.154;2023-07-09T00:03:40;96751.09;;;20.90;100.00
11444;BME280;5778;47.856;12.154;2023-07-09T00:06:08;96745.38;;;20.91;100.00
11444;BME280;5778;47.856;12.154;2023-07-09T00:08:43;96742.25;;;20.98;100.00
11444;BME280;5778;47.856;12.154;2023-07-09T00:11:13;96744.97;;;20.98;100.00
11444;BME280;5778;47.856;12.154;2023-07-09T00:13:40;96735.63;;;21.04;100.00
11444;BME280;5778;47.856;12.154;2023-07-09T00:16:12;96737.09;;;21.10;100.00
11444;BME280;5778;47.856;12.154;2023-07-09T00:18:39;96730.38;;;21.07;100.00
11444;BME280;5778;47.856;12.154;2023-07-09T00:21:06;96739.44;;;21.03;100.00
11444;BME280;5778;47.856;12.154;2023-07-09T00:23:33;96739.22;;;20.99;100.00
11444;BME280;5778;47.856;12.154;2023-07-09T00:26:00;96745.56;;;20.95;100.00
11444;BME280;5778;47.856;12.154;2023-07-09T00:28:30;96747.22;;;20.69;100.00
11444;BME280;5778;47.856;12.154;2023-07-09T00:30:56;96743.28;;;20.53;100.00
11444;BME280;5778;47.856;12.154;2023-07-09T00:33:26;96744.81;;;20.45;100.00
11444;BME280;5778;47.856;12.154;2023-07-09T00:35:57;96744.31;;;20.30;100.00
11444;BME280;5778;47.856;12.154;2023-07-09T00:38:24;96748.44;;;20.27;100.00
11444;BME280;5778;47.856;12.154;2023-07-09T00:41:06;96754.84;;;20.04;100.00
11444;BME280;5778;47.856;12.154;2023-07-09T00:43:45;96752.22;;;19.99;100.00
11444;BME280;5778;47.856;12.154;2023-07-09T00:49:29;96755.66;;;19.91;100.00
11444;BME280;5778;47.856;12.154;2023-07-09T00:51:58;96767.84;;;19.89;100.00
11444;BME280;5778;47.856;12.154;2023-07-09T00:54:32;96758.25;;;19.96;100.00
11444;BME280;5778;47.856;12.154;2023-07-09T00:57:05;96764.34;;;19.88;100.00
11444;BME280;5778;47.856;12.154;2023-07-09T00:59:34;96770.53;;;19.89;100.00
11444;BME280;5778;47.856;12.154;2023-07-09T01:02:01;96773.03;;;19.85;100.00
11444;BME280;5778;47.856;12.154;2023-07-09T01:04:29;96768.13;;;19.87;100.00
11444;BME280;5778;47.856;12.154;2023-07-09T01:06:57;96771.31;;;19.76;100.00
11444;BME280;5778;47.856;12.154;2023-07-09T01:09:25;96763.84;;;19.73;100.00
11444;BME280;5778;47.856;12.154;2023-07-09T01:11:52;96773.63;;;19.69;100.00
11444;BME280;5778;47.856;12.154;2023-07-09T01:14:26;96776.91;;;19.66;100.00
11444;BME280;5778;47.856;12.154;2023-07-09T01:17:00;96778.91;;;19.60;100.00
11444;BME280;5778;47.856;12.154;2023-07-09T01:19:30;96781.59;;;19.47;100.00
11444;BME280;5778;47.856;12.154;2023-07-09T01:22:00;96775.59;;;19.50;100.00
11444;BME280;5778;47.856;12.154;2023-07-09T01:24:51;96781.00;;;19.50;100.00
11444;BME280;5778;47.856;12.154;2023-07-09T01:27:21;96781.59;;;19.47;100.00
11444;BME280;5778;47.856;12.154;2023-07-09T01:29:49;96776.59;;;19.54;100.00
11444;BME280;5778;47.856;12.154;2023-07-09T01:32:17;96784.41;;;19.69;100.00
11444;BME280;5778;47.856;12.154;2023-07-09T01:34:45;96775.22;;;19.70;100.00
11444;BME280;5778;47.856;12.154;2023-07-09T01:37:16;96780.78;;;19.60;100.00
11444;BME280;5778;47.856;12.154;2023-07-09T01:39:43;96780.31;;;19.58;100.00
11444;BME280;5778;47.856;12.154;2023-07-09T01:42:11;96777.88;;;19.43;100.00
11444;BME280;5778;47.856;12.154;2023-07-09T01:44:38;96783.63;;;19.23;100.00
11444;BME280;5778;47.856;12.154;2023-07-09T01:47:06;96783.41;;;19.01;100.00
11444;BME280;5778;47.856;12.154;2023-07-09T01:49:32;96779.09;;;19.00;100.00
11444;BME280;5778;47.856;12.154;2023-07-09T01:52:00;96779.41;;;18.98;100.00
11444;BME280;5778;47.856;12.154;2023-07-09T01:54:31;96779.63;;;19.02;100.00
11444;BME280;5778;47.856;12.154;2023-07-09T01:57:14;96783.31;;;19.06;100.00
11444;BME280;5778;47.856;12.154;2023-07-09T01:59:42;96786.97;;;18.96;100.00
11444;BME280;5778;47.856;12.154;2023-07-09T02:02:10;96780.34;;;18.89;100.00
11444;BME280;5778;47.856;12.154;2023-07-09T02:04:41;96790.56;;;18.92;100.00
11444;BME280;5778;47.856;12.154;2023-07-09T02:07:08;96790.56;;;18.92;100.00
11444;BME280;5778;47.856;12.154;2023-07-09T02:09:37;96783.78;;;18.76;100.00
11444;BME280;5778;47.856;12.154;2023-07-09T02:12:04;96782.69;;;18.77;100.00
11444;BME280;5778;47.856;12.154;2023-07-09T02:14:31;96788.59;;;18.79;100.00
11444;BME280;5778;47.856;12.154;2023-07-09T02:16:58;96786.63;;;18.84;100.00
11444;BME280;5778;47.856;12.154;2023-07-09T02:19:25;96789.81;;;18.68;100.00
11444;BME280;5778;47.856;12.154;2023-07-09T02:21:52;96796.91;;;18.64;100.00
11444;BME280;5778;47.856;12.154;2023-07-09T02:24:19;96793.69;;;18.62;100.00
11444;BME280;5778;47.856;12.154;2023-07-09T02:26:51;96806.72;;;18.55;100.00
11444;BME280;5778;47.856;12.154;2023-07-09T02:29:18;96803.91;;;18.65;100.00
11444;BME280;5778;47.856;12.154;2023-07-09T02:31:45;96799.59;;;18.64;100.00
11444;BME280;5778;47.856;12.154;2023-07-09T02:34:12;96798.78;;;18.82;100.00
11444;BME280;5778;47.856;12.154;2023-07-09T02:36:39;96803.63;;;18.85;100.00
11444;BME280;5778;47.856;12.154;2023-07-09T02:39:09;96806.81;;;18.68;100.00
11444;BME280;5778;47.856;12.154;2023-07-09T02:41:36;96806.53;;;18.70;100.00
11444;BME280;5778;47.856;12.154;2023-07-09T02:44:05;96805.00;;;18.64;100.00
11444;BME280;5778;47.856;12.154;2023-07-09T02:46:33;96809.56;;;18.63;100.00
11444;BME280;5778;47.856;12.154;2023-07-09T02:49:03;96817.38;;;18.65;100.00
11444;BME280;5778;47.856;12.154;2023-07-09T02:51:33;96811.63;;;18.71;100.00
11444;BME280;5778;47.856;12.154;2023-07-09T02:54:01;96802.66;;;18.76;100.00
11444;BME280;5778;47.856;12.154;2023-07-09T02:56:29;96805.34;;;18.76;100.00
11444;BME280;5778;47.856;12.154;2023-07-09T02:58:57;96807.00;;;18.72;100.00
11444;BME280;5778;47.856;12.154;2023-07-09T03:01:25;96807.63;;;18.69;100.00
11444;BME280;5778;47.856;12.154;2023-07-09T03:03:53;96807.97;;;18.62;100.00
11444;BME280;5778;47.856;12.154;2023-07-09T03:06:21;96807.09;;;18.67;100.00
11444;BME280;5778;47.856;12.154;2023-07-09T03:08:48;96809.78;;;18.67;100.00
11444;BME280;5778;47.856;12.154;2023-07-09T03:11:16;96818.31;;;18.55;100.00
11444;BME280;5778;47.856;12.154;2023-07-09T03:13:43;96825.22;;;18.43;100.00
11444;BME280;5778;47.856;12.154;2023-07-09T03:16:11;96832.13;;;18.49;100.00
11444;BME280;5778;47.856;12.154;2023-07-09T03:18:39;96832.19;;;18.44;100.00
11444;BME280;5778;47.856;12.154;2023-07-09T03:21:06;96831.75;;;18.37;100.00
11444;BME280;5778;47.856;12.154;2023-07-09T03:23:33;96834.50;;;18.32;100.00
11444;BME280;5778;47.856;12.154;2023-07-09T03:26:00;96839.88;;;18.32;100.00
11444;BME280;5778;47.856;12.154;2023-07-09T03:28:27;96833.28;;;18.43;100.00
11444;BME280;5778;47.856;12.154;2023-07-09T03:30:55;96835.25;;;18.56;100.00
11444;BME280;5778;47.856;12.154;2023-07-09T03:33:22;96841.25;;;18.53;100.00
11444;BME280;5778;47.856;12.154;2023-07-09T03:35:51;96842.41;;;18.47;100.00
11444;BME280;5778;47.856;12.154;2023-07-09T03:38:18;96848.13;;;18.40;100.00
11444;BME280;5778;47.856;12.154;2023-07-09T03:40:45;96844.94;;;18.38;100.00
11444;BME280;5778;47.856;12.154;2023-07-09T03:43:16;96844.69;;;18.35;100.00
11444;BME280;5778;47.856;12.154;2023-07-09T03:45:43;96850.88;;;18.35;100.00
11444;BME280;5778;47.856;12.154;2023-07-09T03:48:10;96847.78;;;18.47;100.00
11444;BME280;5778;47.856;12.154;2023-07-09T03:50:37;96840.22;;;18.49;100.00
11444;BME280;5778;47.856;12.154;2023-07-09T03:53:06;96842.84;;;18.54;100.00
11444;BME280;5778;47.856;12.154;2023-07-09T03:55:32;96852.88;;;18.67;100.00
11444;BME280;5778;47.856;12.154;2023-07-09T03:57:59;96847.16;;;18.73;100.00
11444;BME280;5778;47.856;12.154;2023-07-09T04:00:28;96845.78;;;18.76;100.00
11444;BME280;5778;47.856;12.154;2023-07-09T04:02:55;96852.75;;;18.77;100.00
11444;BME280;5778;47.856;12.154;2023-07-09T04:05:23;96847.88;;;18.79;100.00
11444;BME280;5778;47.856;12.154;2023-07-09T04:07:50;96858.16;;;18.77;100.00
11444;BME280;5778;47.856;12.154;2023-07-09T04:10:18;96842.41;;;18.84;100.00
11444;BME280;5778;47.856;12.154;2023-07-09T04:12:45;96842.66;;;18.87;100.00
11444;BME280;5778;47.856;12.154;2023-07-09T04:15:12;96836.03;;;18.98;100.00
11444;BME280;5778;47.856;12.154;2023-07-09T04:17:40;96848.13;;;19.01;100.00
11444;BME280;5778;47.856;12.154;2023-07-09T04:20:08;96844.75;;;19.09;100.00
11444;BME280;5778;47.856;12.154;2023-07-09T04:22:36;96852.16;;;19.17;100.00
11444;BME280;5778;47.856;12.154;2023-07-09T04:25:05;96854.56;;;19.18;100.00
11444;BME280;5778;47.856;12.154;2023-07-09T04:27:34;96856.84;;;19.30;100.00
11444;BME280;5778;47.856;12.154;2023-07-09T04:30:00;96856.25;;;19.33;100.00
11444;BME280;5778;47.856;12.154;2023-07-09T04:32:28;96862.25;;;19.30;100.00
11444;BME280;5778;47.856;12.154;2023-07-09T04:34:54;96859.47;;;19.35;100.00
11444;BME280;5778;47.856;12.154;2023-07-09T04:37:22;96858.28;;;19.41;100.00
11444;BME280;5778;47.856;12.154;2023-07-09T04:39:48;96858.22;;;19.46;100.00
11444;BME280;5778;47.856;12.154;2023-07-09T04:42:16;96861.31;;;19.53;100.00
11444;BME280;5778;47.856;12.154;2023-07-09T04:44:45;96864.44;;;19.60;100.00
11444;BME280;5778;47.856;12.154;2023-07-09T04:47:12;96853.19;;;19.71;100.00
11444;BME280;5778;47.856;12.154;2023-07-09T04:49:40;96868.00;;;19.87;100.00
11444;BME280;5778;47.856;12.154;2023-07-09T04:52:07;96857.81;;;19.98;100.00
11444;BME280;5778;47.856;12.154;2023-07-09T04:54:37;96860.28;;;20.13;100.00
11444;BME280;5778;47.856;12.154;2023-07-09T04:57:05;96866.97;;;20.15;100.00
11444;BME280;5778;47.856;12.154;2023-07-09T04:59:32;96866.06;;;20.20;100.00
11444;BME280;5778;47.856;12.154;2023-07-09T05:02:01;96861.09;;;20.27;100.00
11444;BME280;5778;47.856;12.154;2023-07-09T05:04:28;96866.97;;;20.29;100.00
11444;BME280;5778;47.856;12.154;2023-07-09T05:06:56;96864.00;;;20.30;100.00
11444;BME280;5778;47.856;12.154;2023-07-09T05:09:22;96865.59;;;20.31;100.00
11444;BME280;5778;47.856;12.154;2023-07-09T05:11:50;96861.47;;;20.47;100.00
11444;BME280;5778;47.856;12.154;2023-07-09T05:14:17;96867.78;;;20.70;100.00
11444;BME280;5778;47.856;12.154;2023-07-09T05:16:44;96867.72;;;20.97;100.00
11444;BME280;5778;47.856;12.154;2023-07-09T05:19:13;96867.66;;;21.24;100.00
11444;BME280;5778;47.856;12.154;2023-07-09T05:21:40;96865.53;;;21.34;100.00
11444;BME280;5778;47.856;12.154;2023-07-09T05:24:07;96867.81;;;21.63;100.00
11444;BME280;5778;47.856;12.154;2023-07-09T05:26:34;96873.22;;;21.63;100.00
11444;BME280;5778;47.856;12.154;2023-07-09T05:29:02;96869.34;;;21.77;100.00
11444;BME280;5778;47.856;12.154;2023-07-09T05:31:30;96869.88;;;21.88;100.00
11444;BME280;5778;47.856;12.154;2023-07-09T05:33:58;96866.09;;;21.97;100.00
11444;BME280;5778;47.856;12.154;2023-07-09T05:36:27;96868.88;;;22.06;100.00
11444;BME280;5778;47.856;12.154;2023-07-09T05:38:54;96869.28;;;22.21;100.00
11444;BME280;5778;47.856;12.154;2023-07-09T05:41:21;96874.72;;;22.30;100.00
11444;BME280;5778;47.856;12.154;2023-07-09T05:43:49;96877.44;;;22.30;100.00
11444;BME280;5778;47.856;12.154;2023-07-09T05:46:16;96880.19;;;22.38;100.00
11444;BME280;5778;47.856;12.154;2023-07-09T05:48:43;96883.38;;;22.40;100.00
11444;BME280;5778;47.856;12.154;2023-07-09T05:51:10;96884.38;;;22.14;100.00
11444;BME280;5778;47.856;12.154;2023-07-09T05:53:38;96886.69;;;22.29;100.00
11444;BME280;5778;47.856;12.154;2023-07-09T05:56:05;96888.97;;;22.44;100.00
11444;BME280;5778;47.856;12.154;2023-07-09T05:58:32;96892.53;;;22.22;100.00
11444;BME280;5778;47.856;12.154;2023-07-09T06:00:59;96890.53;;;22.36;100.00
11444;BME280;5778;47.856;12.154;2023-07-09T06:03:26;96885.88;;;22.28;100.00
11444;BME280;5778;47.856;12.154;2023-07-09T06:05:53;96893.97;;;22.50;100.00
11444;BME280;5778;47.856;12.154;2023-07-09T06:08:21;96889.53;;;22.63;100.00
11444;BME280;5778;47.856;12.154;2023-07-09T06:10:54;96884.78;;;22.38;100.00
11444;BME280;5778;47.856;12.154;2023-07-09T06:13:22;96887.63;;;22.55;100.00
11444;BME280;5778;47.856;12.154;2023-07-09T06:15:50;96886.88;;;22.80;100.00
11444;BME280;5778;47.856;12.154;2023-07-09T06:18:18;96887.53;;;22.77;100.00
11444;BME280;5778;47.856;12.154;2023-07-09T06:20:48;96887.88;;;22.92;100.00
11444;BME280;5778;47.856;12.154;2023-07-09T06:23:16;96889.66;;;23.22;100.00
11444;BME280;5778;47.856;12.154;2023-07-09T06:25:43;96888.75;;;23.27;100.00
11444;BME280;5778;47.856;12.154;2023-07-09T06:28:14;96892.25;;;23.61;100.00
11444;BME280;5778;47.856;12.154;2023-07-09T06:30:41;96890.47;;;23.74;100.00
11444;BME280;5778;47.856;12.154;2023-07-09T06:33:08;96893.47;;;24.06;100.00
11444;BME280;5778;47.856;12.154;2023-07-09T06:35:36;96887.31;;;24.26;100.00
11444;BME280;5778;47.856;12.154;2023-07-09T06:38:03;96894.66;;;24.34;100.00
11444;BME280;5778;47.856;12.154;2023-07-09T06:40:30;96892.94;;;24.30;100.00
11444;BME280;5778;47.856;12.154;2023-07-09T06:42:57;96892.72;;;23.72;100.00
11444;BME280;5778;47.856;12.154;2023-07-09T06:45:33;96897.81;;;23.99;100.00
11444;BME280;5778;47.856;12.154;2023-07-09T06:48:00;96894.66;;;24.34;100.00
11444;BME280;5778;47.856;12.154;2023-07-09T06:50:27;96898.66;;;24.37;100.00
11444;BME280;5778;47.856;12.154;2023-07-09T06:52:54;96896.44;;;24.76;100.00
11444;BME280;5778;47.856;12.154;2023-07-09T06:55:20;96897.13;;;24.94;100.00
11444;BME280;5778;47.856;12.154;2023-07-09T06:57:47;96892.78;;;25.22;100.00
11444;BME280;5778;47.856;12.154;2023-07-09T07:00:15;96891.03;;;24.97;100.00
11444;BME280;5778;47.856;12.154;2023-07-09T07:02:43;96892.94;;;24.96;100.00
11444;BME280;5778;47.856;12.154;2023-07-09T07:05:10;96884.53;;;25.10;100.00
11444;BME280;5778;47.856;12.154;2023-07-09T07:07:37;96894.81;;;25.33;100.00
11444;BME280;5778;47.856;12.154;2023-07-09T07:10:05;96885.50;;;25.34;100.00
11444;BME280;5778;47.856;12.154;2023-07-09T07:12:41;96883.78;;;25.50;100.00
11444;BME280;5778;47.856;12.154;2023-07-09T07:15:09;96879.91;;;25.51;100.00
11444;BME280;5778;47.856;12.154;2023-07-09T07:17:36;96878.25;;;25.79;100.00
11444;BME280;5778;47.856;12.154;2023-07-09T07:20:05;96887.53;;;25.78;100.00
11444;BME280;5778;47.856;12.154;2023-07-09T07:22:32;96884.78;;;25.78;100.00
11444;BME280;5778;47.856;12.154;2023-07-09T07:24:59;96885.84;;;25.86;100.00
11444;BME280;5778;47.856;12.154;2023-07-09T07:27:26;96887.13;;;26.21;100.00
11444;BME280;5778;47.856;12.154;2023-07-09T07:29:53;96886.44;;;26.24;100.00
11444;BME280;5778;47.856;12.154;2023-07-09T07:32:20;96883.72;;;26.36;100.00
11444;BME280;5778;47.856;12.154;2023-07-09T07:34:47;96882.13;;;26.35;100.00
11444;BME280;5778;47.856;12.154;2023-07-09T07:37:18;96881.09;;;25.83;100.00
11444;BME280;5778;47.856;12.154;2023-07-09T07:39:46;96878.03;;;26.41;100.00
11444;BME280;5778;47.856;12.154;2023-07-09T07:42:13;96878.31;;;26.48;100.00
11444;BME280;5778;47.856;12.154;2023-07-09T07:44:40;96883.13;;;26.87;100.00
11444;BME280;5778;47.856;12.154;2023-07-09T07:47:07;96876.38;;;27.08;100.00
11444;BME280;5778;47.856;12.154;2023-07-09T07:49:34;96877.63;;;27.23;100.00
11444;BME280;5778;47.856;12.154;2023-07-09T07:52:01;96874.22;;;27.26;100.00
11444;BME280;5778;47.856;12.154;2023-07-09T07:54:30;96874.09;;;27.62;100.00
11444;BME280;5778;47.856;12.154;2023-07-09T07:56:57;96872.25;;;27.66;100.00
11444;BME280;5778;47.856;12.154;2023-07-09T07:59:24;96868.53;;;27.19;100.00
11444;BME280;5778;47.856;12.154;2023-07-09T08:01:51;96869.22;;;27.55;100.00
11444;BME280;5778;47.856;12.154;2023-07-09T08:04:18;96863.63;;;27.64;100.00
11444;BME280;5778;47.856;12.154;2023-07-09T08:06:45;96868.75;;;27.93;100.00
11444;BME280;5778;47.856;12.154;2023-07-09T08:09:11;96856.13;;;27.88;100.00
11444;BME280;5778;47.856;12.154;2023-07-09T08:11:40;96860.69;;;28.27;100.00
11444;BME280;5778;47.856;12.154;2023-07-09T08:14:07;96857.72;;;28.05;85.47
11444;BME280;5778;47.856;12.154;2023-07-09T08:16:34;96859.50;;;27.97;86.13
11444;BME280;5778;47.856;12.154;2023-07-09T08:19:01;96862.09;;;28.21;99.46
11444;BME280;5778;47.856;12.154;2023-07-09T08:21:28;96852.31;;;28.36;74.74
11444;BME280;5778;47.856;12.154;2023-07-09T08:23:55;96868.06;;;28.39;94.55
11444;BME280;5778;47.856;12.154;2023-07-09T08:26:22;96855.75;;;28.79;94.69
11444;BME280;5778;47.856;12.154;2023-07-09T08:28:51;96859.03;;;29.00;76.59
11444;BME280;5778;47.856;12.154;2023-07-09T08:31:18;96862.22;;;29.21;74.13
11444;BME280;5778;47.856;12.154;2023-07-09T08:33:45;96857.31;;;28.96;72.96
11444;BME280;5778;47.856;12.154;2023-07-09T08:36:12;96857.66;;;28.94;68.56
11444;BME280;5778;47.856;12.154;2023-07-09T08:38:39;96857.81;;;29.17;62.12
11444;BME280;5778;47.856;12.154;2023-07-09T08:41:08;96862.19;;;29.37;62.88
11444;BME280;5778;47.856;12.154;2023-07-09T08:43:58;96852.56;;;29.27;60.41
11444;BME280;5778;47.856;12.154;2023-07-09T08:46:36;96851.34;;;28.90;59.65
11444;BME280;5778;47.856;12.154;2023-07-09T08:49:17;96857.91;;;29.74;64.84
11444;BME280;5778;47.856;12.154;2023-07-09T08:51:47;96850.63;;;29.28;56.67
11444;BME280;5778;47.856;12.154;2023-07-09T08:54:20;96850.75;;;29.69;56.93
11444;BME280;5778;47.856;12.154;2023-07-09T08:56:49;96851.56;;;29.70;58.45
11444;BME280;5778;47.856;12.154;2023-07-09T08:59:19;96848.25;;;30.02;60.33
11444;BME280;5778;47.856;12.154;2023-07-09T09:01:50;96854.97;;;30.24;56.23
11444;BME280;5778;47.856;12.154;2023-07-09T09:04:20;96845.69;;;30.32;51.21
11444;BME280;5778;47.856;12.154;2023-07-09T09:06:52;96850.69;;;30.49;51.75
11444;BME280;5778;47.856;12.154;2023-07-09T09:09:28;96850.31;;;30.99;52.85
11444;BME280;5778;47.856;12.154;2023-07-09T09:12:02;96854.88;;;31.14;58.84
11444;BME280;5778;47.856;12.154;2023-07-09T09:14:34;96855.25;;;30.86;57.45
11444;BME280;5778;47.856;12.154;2023-07-09T09:17:10;96850.59;;;30.90;59.67
11444;BME280;5778;47.856;12.154;2023-07-09T09:19:43;96853.72;;;30.89;55.13
11444;BME280;5778;47.856;12.154;2023-07-09T09:22:13;96851.72;;;30.86;53.29
11444;BME280;5778;47.856;12.154;2023-07-09T09:24:54;96848.75;;;30.98;54.26
11444;BME280;5778;47.856;12.154;2023-07-09T09:27:22;96846.53;;;30.58;52.86
11444;BME280;5778;47.856;12.154;2023-07-09T09:29:50;96851.66;;;30.60;47.29
11444;BME280;5778;47.856;12.154;2023-07-09T09:32:22;96846.31;;;30.67;49.88
11444;BME280;5778;47.856;12.154;2023-07-09T09:34:49;96846.75;;;30.95;51.40
11444;BME280;5778;47.856;12.154;2023-07-09T09:37:24;96848.16;;;30.85;49.18
11444;BME280;5778;47.856;12.154;2023-07-09T09:39:52;96849.09;;;31.48;54.73
11444;BME280;5778;47.856;12.154;2023-07-09T09:42:19;96846.34;;;31.48;54.56
11444;BME280;5778;47.856;12.154;2023-07-09T09:44:46;96848.75;;;31.83;53.11
11444;BME280;5778;47.856;12.154;2023-07-09T09:47:15;96849.28;;;31.92;52.62
11444;BME280;5778;47.856;12.154;2023-07-09T09:49:43;96849.13;;;32.18;51.37
11444;BME280;5778;47.856;12.154;2023-07-09T09:52:12;96840.91;;;32.58;43.13
11444;BME280;5778;47.856;12.154;2023-07-09T09:54:43;96838.84;;;32.48;44.03
11444;BME280;5778;47.856;12.154;2023-07-09T09:57:16;96839.38;;;32.64;39.75
11444;BME280;5778;47.856;12.154;2023-07-09T09:59:45;96840.31;;;32.82;42.54
11444;BME280;5778;47.856;12.154;2023-07-09T10:02:26;96842.19;;;32.74;39.64
11444;BME280;5778;47.856;12.154;2023-07-09T10:04:53;96839.69;;;32.19;36.91
11444;BME280;5778;47.856;12.154;2023-07-09T10:07:22;96838.66;;;32.27;36.98
11444;BME280;5778;47.856;12.154;2023-07-09T10:09:54;96836.13;;;32.55;37.27
11444;BME280;5778;47.856;12.154;2023-07-09T10:12:35;96840.44;;;32.96;38.27
11444;BME280;5778;47.856;12.154;2023-07-09T10:15:11;96831.22;;;32.78;36.89
11444;BME280;5778;47.856;12.154;2023-07-09T10:17:49;96826.00;;;32.66;35.39
11444;BME280;5778;47.856;12.154;2023-07-09T10:20:24;96833.72;;;31.73;35.73
11444;BME280;5778;47.856;12.154;2023-07-09T10:22:55;96837.44;;;31.88;37.83
11444;BME280;5778;47.856;12.154;2023-07-09T10:25:31;96837.38;;;32.21;36.19
11444;BME280;5778;47.856;12.154;2023-07-09T10:28:16;96833.78;;;32.57;35.34
11444;BME280;5778;47.856;12.154;2023-07-09T10:30:55;96837.59;;;32.38;34.72
11444;BME280;5778;47.856;12.154;2023-07-09T10:33:37;96836.16;;;31.78;35.64
11444;BME280;5778;47.856;12.154;2023-07-09T10:36:20;96827.56;;;32.63;34.97
11444;BME280;5778;47.856;12.154;2023-07-09T10:38:55;96827.28;;;32.32;35.37
11444;BME280;5778;47.856;12.154;2023-07-09T10:41:25;96832.91;;;32.46;33.75
11444;BME280;5778;47.856;12.154;2023-07-09T10:43:56;96831.97;;;32.28;34.69
11444;BME280;5778;47.856;12.154;2023-07-09T10:46:26;96830.09;;;32.39;35.66
11444;BME280;5778;47.856;12.154;2023-07-09T10:48:56;96834.13;;;32.12;35.83
11444;BME280;5778;47.856;12.154;2023-07-09T10:51:28;96830.59;;;32.48;34.94
11444;BME280;5778;47.856;12.154;2023-07-09T10:53:58;96834.97;;;33.06;34.13
11444;BME280;5778;47.856;12.154;2023-07-09T10:56:27;96830.16;;;32.93;34.83
11444;BME280;5778;47.856;12.154;2023-07-09T10:59:00;96830.84;;;33.37;34.13
11444;BME280;5778;47.856;12.154;2023-07-09T11:01:33;96832.44;;;32.37;35.39
11444;BME280;5778;47.856;12.154;2023-07-09T11:04:05;96822.22;;;32.01;35.85
11444;BME280;5778;47.856;12.154;2023-07-09T11:06:37;96821.34;;;32.73;35.52
11444;BME280;5778;47.856;12.154;2023-07-09T11:09:15;96826.19;;;32.43;37.18
11444;BME280;5778;47.856;12.154;2023-07-09T11:11:47;96823.72;;;33.29;37.99
11444;BME280;5778;47.856;12.154;2023-07-09T11:14:24;96823.59;;;33.83;38.20
11444;BME280;5778;47.856;12.154;2023-07-09T11:16:54;96820.84;;;33.90;39.44
11444;BME280;5778;47.856;12.154;2023-07-09T11:19:24;96815.59;;;33.64;34.96
11444;BME280;5778;47.856;12.154;2023-07-09T11:21:59;96804.13;;;33.55;34.03
11444;BME280;5778;47.856;12.154;2023-07-09T11:24:35;96809.59;;;33.37;35.08
11444;BME280;5778;47.856;12.154;2023-07-09T11:27:02;96808.06;;;32.82;34.28
11444;BME280;5778;47.856;12.154;2023-07-09T11:29:46;96808.03;;;33.47;34.42
11444;BME280;5778;47.856;12.154;2023-07-09T11:32:18;96805.47;;;33.85;37.45
11444;BME280;5778;47.856;12.154;2023-07-09T11:34:47;96804.66;;;33.78;35.28
11444;BME280;5778;47.856;12.154;2023-07-09T11:37:15;96803.38;;;33.65;33.13
11444;BME280;5778;47.856;12.154;2023-07-09T11:39:44;96795.31;;;33.25;33.32
11444;BME280;5778;47.856;12.154;2023-07-09T11:42:27;96799.19;;;33.13;32.44
11444;BME280;5778;47.856;12.154;2023-07-09T11:44:59;96791.50;;;32.79;33.99
11444;BME280;5778;47.856;12.154;2023-07-09T11:47:31;96794.16;;;33.29;34.89
11444;BME280;5778;47.856;12.154;2023-07-09T11:50:05;96786.38;;;33.49;34.25
11444;BME280;5778;47.856;12.154;2023-07-09T11:52:35;96790.78;;;33.64;36.42
11444;BME280;5778;47.856;12.154;2023-07-09T11:55:33;96786.16;;;34.03;36.74
11444;BME280;5778;47.856;12.154;2023-07-09T11:58:05;96789.31;;;33.09;32.76
11444;BME280;5778;47.856;12.154;2023-07-09T12:00:37;96786.03;;;33.61;35.80
11444;BME280;5778;47.856;12.154;2023-07-09T12:03:06;96787.16;;;32.78;33.13
11444;BME280;5778;47.856;12.154;2023-07-09T12:05:35;96785.72;;;32.98;32.41
11444;BME280;5778;47.856;12.154;2023-07-09T12:08:02;96782.47;;;33.57;32.96
11444;BME280;5778;47.856;12.154;2023-07-09T12:10:34;96787.81;;;34.46;35.41
11444;BME280;5778;47.856;12.154;2023-07-09T12:13:02;96780.31;;;34.57;33.97
11444;BME280;5778;47.856;12.154;2023-07-09T12:15:30;96778.34;;;34.64;33.88
11444;BME280;5778;47.856;12.154;2023-07-09T12:18:00;96779.53;;;34.81;35.69
11444;BME280;5778;47.856;12.154;2023-07-09T12:20:30;96773.97;;;34.21;30.71
11444;BME280;5778;47.856;12.154;2023-07-09T12:22:59;96772.41;;;34.17;30.83
11444;BME280;5778;47.856;12.154;2023-07-09T12:25:29;96769.97;;;33.80;30.57
11444;BME280;5778;47.856;12.154;2023-07-09T12:27:58;96758.19;;;34.71;34.07
11444;BME280;5778;47.856;12.154;2023-07-09T12:30:25;96757.84;;;34.30;29.83
11444;BME280;5778;47.856;12.154;2023-07-09T12:32:52;96749.06;;;34.98;31.49
11444;BME280;5778;47.856;12.154;2023-07-09T12:35:19;96750.59;;;35.31;31.82
11444;BME280;5778;47.856;12.154;2023-07-09T12:37:47;96739.25;;;34.24;29.90
11444;BME280;5778;47.856;12.154;2023-07-09T12:40:20;96738.25;;;33.29;31.10
11444;BME280;5778;47.856;12.154;2023-07-09T12:42:47;96743.19;;;34.68;33.94
11444;BME280;5778;47.856;12.154;2023-07-09T12:45:16;96742.78;;;34.87;31.89
11444;BME280;5778;47.856;12.154;2023-07-09T12:47:45;96736.69;;;35.45;32.78
11444;BME280;5778;47.856;12.154;2023-07-09T12:50:21;96738.25;;;35.49;32.16
11444;BME280;5778;47.856;12.154;2023-07-09T12:52:49;96729.38;;;35.86;32.87
11444;BME280;5778;47.856;12.154;2023-07-09T12:55:22;96729.59;;;36.09;32.36
11444;BME280;5778;47.856;12.154;2023-07-09T12:57:50;96730.16;;;35.90;31.18
11444;BME280;5778;47.856;12.154;2023-07-09T13:00:18;96720.59;;;35.98;33.50
11444;BME280;5778;47.856;12.154;2023-07-09T13:02:45;96713.91;;;36.43;32.40
11444;BME280;5778;47.856;12.154;2023-07-09T13:05:20;96721.69;;;36.99;31.73
11444;BME280;5778;47.856;12.154;2023-07-09T13:07:50;96717.75;;;36.96;31.55